sensor_id;sensor_type;location;lat;lon;timestamp;pressure;altitude;pressure_sealevel;temperature;humidity
62025;BME280;47978;49.118;12.146;2023-08-06T00:01:25;96676.47;;;13.87;100.00
62025;BME280;47978;49.118;12.146;2023-08-06T00:05:28;96680.38;;;14.10;100.00
62025;BME280;47978;49.118;12.146;2023-08-06T00:09:29;96673.66;;;14.24;100.00
62025;BME280;47978;49.118;12.146;2023-08-06T00:13:30;96663.72;;;13.98;100.00
62025;BME280;47978;49.118;12.146;2023-08-06T00:17:33;96663.47;;;13.91;100.00
62025;BME280;47978;49.118;12.146;2023-08-06T00:21:36;96665.56;;;13.82;100.00
62025;BME280;47978;49.118;12.146;2023-08-06T00:25:40;96661.50;;;13.79;100.00
62025;BME280;47978;49.118;12.146;2023-08-06T00:29:41;96658.63;;;13.76;100.00
62025;BME280;47978;49.118;12.146;2023-08-06T00:33:42;96668.56;;;14.01;100.00
62025;BME280;47978;49.118;12.146;2023-08-06T00:37:45;96669.84;;;13.91;100.00
62025;BME280;47978;49.118;12.146;2023-08-06T00:41:47;96663.03;;;13.89;100.00
62025;BME280;47978;49.118;12.146;2023-08-06T00:45:48;96674.84;;;13.98;100.00
62025;BME280;47978;49.118;12.146;2023-08-06T00:49:50;96677.38;;;13.91;100.00
62025;BME280;47978;49.118;12.146;2023-08-06T00:53:53;96683.25;;;14.26;100.00
62025;BME280;47978;49.118;12.146;2023-08-06T00:57:54;96685.44;;;14.33;100.00
62025;BME280;47978;49.118;12.146;2023-08-06T01:01:56;96682.28;;;14.47;100.00
62025;BME280;47978;49.118;12.146;2023-08-06T01:05:58;96667.56;;;14.46;100.00
62025;BME280;47978;49.118;12.146;2023-08-06T01:10:10;96668.03;;;14.60;100.00
62025;BME280;47978;49.118;12.146;2023-08-06T01:14:15;96664.47;;;14.35;100.00
62025;BME280;47978;49.118;12.146;2023-08-06T01:18:19;96655.31;;;14.35;100.00
62025;BME280;47978;49.118;12.146;2023-08-06T01:22:22;96644.19;;;14.35;100.00
62025;BME280;47978;49.118;12.146;2023-08-06T01:26:24;96641.78;;;14.21;100.00
62025;BME280;47978;49.118;12.146;2023-08-06T01:30:29;96653.28;;;14.48;100.00
62025;BME280;47978;49.118;12.146;2023-08-06T01:34:32;96655.31;;;14.35;100.00
62025;BME280;47978;49.118;12.146;2023-08-06T01:38:36;96655.09;;;14.28;100.00
62025;BME280;47978;49.118;12.146;2023-08-06T01:42:37;96649.38;;;14.36;100.00
62025;BME280;47978;49.118;12.146;2023-08-06T01:46:39;96653.59;;;14.30;100.00
62025;BME280;47978;49.118;12.146;2023-08-06T01:50:40;96657.72;;;14.36;100.00
62025;BME280;47978;49.118;12.146;2023-08-06T01:54:43;96654.63;;;14.26;100.00
62025;BME280;47978;49.118;12.146;2023-08-06T01:58:44;96651.59;;;14.43;100.00
62025;BME280;47978;49.118;12.146;2023-08-06T02:02:46;96640.03;;;14.29;100.00
62025;BME280;47978;49.118;12.146;2023-08-06T02:06:47;96633.34;;;14.17;100.00
62025;BME280;47978;49.118;12.146;2023-08-06T02:10:50;96626.16;;;14.16;100.00
62025;BME280;47978;49.118;12.146;2023-08-06T02:14:51;96628.25;;;14.07;100.00
62025;BME280;47978;49.118;12.146;2023-08-06T02:18:53;96614.50;;;13.99;100.00
62025;BME280;47978;49.118;12.146;2023-08-06T02:22:54;96617.75;;;14.01;100.00
62025;BME280;47978;49.118;12.146;2023-08-06T02:26:57;96611.03;;;13.77;100.00
62025;BME280;47978;49.118;12.146;2023-08-06T02:30:58;96614.38;;;13.95;100.00
62025;BME280;47978;49.118;12.146;2023-08-06T02:35:00;96608.72;;;13.79;100.00
62025;BME280;47978;49.118;12.146;2023-08-06T02:39:02;96601.22;;;13.67;100.00
62025;BME280;47978;49.118;12.146;2023-08-06T02:43:04;96602.84;;;13.56;100.00
62025;BME280;47978;49.118;12.146;2023-08-06T02:47:06;96604.56;;;13.61;100.00
62025;BME280;47978;49.118;12.146;2023-08-06T02:51:07;96612.19;;;13.76;100.00
62025;BME280;47978;49.118;12.146;2023-08-06T02:55:09;96614.41;;;13.70;100.00
62025;BME280;47978;49.118;12.146;2023-08-06T02:59:11;96600.53;;;13.58;100.00
62025;BME280;47978;49.118;12.146;2023-08-06T03:03:13;96604.78;;;13.80;100.00
62025;BME280;47978;49.118;12.146;2023-08-06T03:07:14;96613.75;;;14.14;100.00
62025;BME280;47978;49.118;12.146;2023-08-06T03:11:16;96600.97;;;13.85;100.00
62025;BME280;47978;49.118;12.146;2023-08-06T03:15:18;96603.63;;;13.81;100.00
62025;BME280;47978;49.118;12.146;2023-08-06T03:19:20;96602.00;;;13.80;100.00
62025;BME280;47978;49.118;12.146;2023-08-06T03:23:21;96601.25;;;14.08;100.00
62025;BME280;47978;49.118;12.146;2023-08-06T03:27:23;96601.63;;;14.06;100.00
62025;BME280;47978;49.118;12.146;2023-08-06T03:31:25;96607.84;;;14.15;100.00
62025;BME280;47978;49.118;12.146;2023-08-06T03:35:27;96598.97;;;13.98;100.00
62025;BME280;47978;49.118;12.146;2023-08-06T03:39:28;96591.34;;;13.82;100.00
62025;BME280;47978;49.118;12.146;2023-08-06T03:43:30;96589.19;;;13.63;100.00
62025;BME280;47978;49.118;12.146;2023-08-06T03:47:33;96580.50;;;13.53;100.00
62025;BME280;47978;49.118;12.146;2023-08-06T03:51:34;96592.88;;;13.43;100.00
62025;BME280;47978;49.118;12.146;2023-08-06T03:55:35;96592.19;;;13.70;100.00
62025;BME280;47978;49.118;12.146;2023-08-06T03:59:37;96598.44;;;13.67;100.00
62025;BME280;47978;49.118;12.146;2023-08-06T04:03:40;96594.50;;;13.81;100.00
62025;BME280;47978;49.118;12.146;2023-08-06T04:07:41;96586.00;;;14.02;100.00
62025;BME280;47978;49.118;12.146;2023-08-06T04:11:43;96597.72;;;13.83;100.00
62025;BME280;47978;49.118;12.146;2023-08-06T04:15:44;96604.69;;;13.52;100.00
62025;BME280;47978;49.118;12.146;2023-08-06T04:19:47;96608.84;;;13.46;100.00
62025;BME280;47978;49.118;12.146;2023-08-06T04:23:48;96603.28;;;13.34;100.00
62025;BME280;47978;49.118;12.146;2023-08-06T04:27:50;96609.66;;;13.46;100.00
62025;BME280;47978;49.118;12.146;2023-08-06T04:31:51;96607.22;;;13.45;100.00
62025;BME280;47978;49.118;12.146;2023-08-06T04:35:55;96597.72;;;13.46;100.00
62025;BME280;47978;49.118;12.146;2023-08-06T04:39:56;96604.56;;;13.73;100.00
62025;BME280;47978;49.118;12.146;2023-08-06T04:43:58;96600.84;;;13.81;100.00
62025;BME280;47978;49.118;12.146;2023-08-06T04:47:59;96587.06;;;13.85;100.00
62025;BME280;47978;49.118;12.146;2023-08-06T04:52:02;96577.34;;;13.79;100.00
62025;BME280;47978;49.118;12.146;2023-08-06T04:56:04;96584.50;;;13.80;100.00
62025;BME280;47978;49.118;12.146;2023-08-06T05:00:06;96586.03;;;14.30;100.00
62025;BME280;47978;49.118;12.146;2023-08-06T05:04:07;96577.31;;;14.31;100.00
62025;BME280;47978;49.118;12.146;2023-08-06T05:08:13;96572.63;;;14.20;100.00
62025;BME280;47978;49.118;12.146;2023-08-06T05:12:15;96574.03;;;14.54;100.00
62025;BME280;47978;49.118;12.146;2023-08-06T05:16:16;96574.16;;;14.73;100.00
62025;BME280;47978;49.118;12.146;2023-08-06T05:20:17;96568.53;;;14.85;100.00
62025;BME280;47978;49.118;12.146;2023-08-06T05:24:20;96563.78;;;14.86;100.00
62025;BME280;47978;49.118;12.146;2023-08-06T05:28:23;96556.88;;;14.80;100.00
62025;BME280;47978;49.118;12.146;2023-08-06T05:32:24;96560.81;;;15.11;100.00
62025;BME280;47978;49.118;12.146;2023-08-06T05:36:26;96565.41;;;15.19;100.00
62025;BME280;47978;49.118;12.146;2023-08-06T05:40:32;96566.69;;;15.21;100.00
62025;BME280;47978;49.118;12.146;2023-08-06T05:44:34;96572.31;;;15.25;100.00
62025;BME280;47978;49.118;12.146;2023-08-06T05:48:35;96578.91;;;15.33;99.81
62025;BME280;47978;49.118;12.146;2023-08-06T05:52:36;96568.84;;;15.12;100.00
62025;BME280;47978;49.118;12.146;2023-08-06T05:56:39;96570.06;;;14.83;100.00
62025;BME280;47978;49.118;12.146;2023-08-06T06:00:41;96572.38;;;14.81;100.00
62025;BME280;47978;49.118;12.146;2023-08-06T06:04:42;96562.34;;;14.92;100.00
62025;BME280;47978;49.118;12.146;2023-08-06T06:08:44;96569.53;;;14.93;100.00
62025;BME280;47978;49.118;12.146;2023-08-06T06:12:47;96569.19;;;15.26;100.00
62025;BME280;47978;49.118;12.146;2023-08-06T06:16:48;96562.63;;;15.35;100.00
62025;BME280;47978;49.118;12.146;2023-08-06T06:20:50;96566.19;;;15.67;97.91
62025;BME280;47978;49.118;12.146;2023-08-06T06:24:51;96553.81;;;15.48;100.00
62025;BME280;47978;49.118;12.146;2023-08-06T06:28:54;96555.06;;;16.02;95.60
62025;BME280;47978;49.118;12.146;2023-08-06T06:32:55;96556.53;;;15.96;96.17
62025;BME280;47978;49.118;12.146;2023-08-06T06:36:57;96559.41;;;16.00;98.45
62025;BME280;47978;49.118;12.146;2023-08-06T06:40:58;96560.53;;;16.14;93.67
62025;BME280;47978;49.118;12.146;2023-08-06T06:45:01;96552.53;;;16.52;91.21
62025;BME280;47978;49.118;12.146;2023-08-06T06:49:03;96542.31;;;16.59;92.82
62025;BME280;47978;49.118;12.146;2023-08-06T06:53:04;96534.69;;;17.45;87.08
62025;BME280;47978;49.118;12.146;2023-08-06T06:57:06;96534.53;;;18.14;85.30
62025;BME280;47978;49.118;12.146;2023-08-06T07:01:09;96536.50;;;17.34;86.68
62025;BME280;47978;49.118;12.146;2023-08-06T07:05:10;96534.13;;;18.46;82.75
62025;BME280;47978;49.118;12.146;2023-08-06T07:09:12;96532.16;;;17.86;85.16
62025;BME280;47978;49.118;12.146;2023-08-06T07:13:13;96528.63;;;17.66;84.96
62025;BME280;47978;49.118;12.146;2023-08-06T07:17:16;96532.50;;;17.84;86.29
62025;BME280;47978;49.118;12.146;2023-08-06T07:21:17;96528.59;;;17.89;83.30
62025;BME280;47978;49.118;12.146;2023-08-06T07:25:19;96517.19;;;18.35;83.83
62025;BME280;47978;49.118;12.146;2023-08-06T07:29:20;96526.75;;;17.01;87.71
62025;BME280;47978;49.118;12.146;2023-08-06T07:33:23;96532.22;;;16.74;89.77
62025;BME280;47978;49.118;12.146;2023-08-06T07:37:24;96527.16;;;17.49;87.32
62025;BME280;47978;49.118;12.146;2023-08-06T07:41:26;96527.81;;;18.52;82.24
62025;BME280;47978;49.118;12.146;2023-08-06T07:45:27;96523.59;;;18.02;82.06
62025;BME280;47978;49.118;12.146;2023-08-06T07:49:30;96518.63;;;17.15;87.22
62025;BME280;47978;49.118;12.146;2023-08-06T07:53:31;96508.44;;;16.80;90.32
62025;BME280;47978;49.118;12.146;2023-08-06T07:57:33;96508.94;;;16.86;90.19
62025;BME280;47978;49.118;12.146;2023-08-06T08:01:35;96504.53;;;16.85;90.76
62025;BME280;47978;49.118;12.146;2023-08-06T08:05:37;96501.88;;;16.73;89.89
62025;BME280;47978;49.118;12.146;2023-08-06T08:09:39;96498.28;;;16.92;90.06
62025;BME280;47978;49.118;12.146;2023-08-06T08:13:40;96493.75;;;16.64;88.85
62025;BME280;47978;49.118;12.146;2023-08-06T08:17:42;96492.50;;;17.04;89.97
62025;BME280;47978;49.118;12.146;2023-08-06T08:21:45;96492.09;;;17.55;87.28
62025;BME280;47978;49.118;12.146;2023-08-06T08:25:46;96496.41;;;17.49;81.89
62025;BME280;47978;49.118;12.146;2023-08-06T08:29:48;96505.44;;;17.65;83.72
62025;BME280;47978;49.118;12.146;2023-08-06T08:33:49;96497.25;;;17.53;82.40
62025;BME280;47978;49.118;12.146;2023-08-06T08:37:56;96494.94;;;17.32;81.52
62025;BME280;47978;49.118;12.146;2023-08-06T08:41:57;96493.22;;;18.34;76.24
62025;BME280;47978;49.118;12.146;2023-08-06T08:46:00;96489.94;;;20.10;68.72
62025;BME280;47978;49.118;12.146;2023-08-06T08:50:03;96479.31;;;19.71;71.12
62025;BME280;47978;49.118;12.146;2023-08-06T08:54:08;96478.63;;;19.92;71.11
62025;BME280;47978;49.118;12.146;2023-08-06T08:58:09;96468.09;;;19.71;70.01
62025;BME280;47978;49.118;12.146;2023-08-06T09:02:11;96466.53;;;20.75;67.47
62025;BME280;47978;49.118;12.146;2023-08-06T09:06:14;96462.97;;;21.07;64.79
62025;BME280;47978;49.118;12.146;2023-08-06T09:10:18;96464.75;;;20.24;66.63
62025;BME280;47978;49.118;12.146;2023-08-06T09:14:21;96457.66;;;19.68;69.91
62025;BME280;47978;49.118;12.146;2023-08-06T09:18:26;96454.25;;;18.55;73.63
62025;BME280;47978;49.118;12.146;2023-08-06T09:22:32;96465.34;;;17.81;78.54
62025;BME280;47978;49.118;12.146;2023-08-06T09:26:36;96473.00;;;17.30;83.05
62025;BME280;47978;49.118;12.146;2023-08-06T09:30:37;96470.19;;;17.07;86.21
62025;BME280;47978;49.118;12.146;2023-08-06T09:34:39;96466.59;;;17.57;85.57
62025;BME280;47978;49.118;12.146;2023-08-06T09:38:41;96455.69;;;17.48;86.92
62025;BME280;47978;49.118;12.146;2023-08-06T09:42:44;96455.25;;;16.31;92.05
62025;BME280;47978;49.118;12.146;2023-08-06T09:46:49;96463.53;;;16.47;95.10
62025;BME280;47978;49.118;12.146;2023-08-06T09:50:51;96468.56;;;15.99;94.79
62025;BME280;47978;49.118;12.146;2023-08-06T09:54:53;96476.38;;;15.73;98.72
62025;BME280;47978;49.118;12.146;2023-08-06T09:58:55;96473.75;;;15.81;96.38
62025;BME280;47978;49.118;12.146;2023-08-06T10:02:59;96480.28;;;15.69;97.72
62025;BME280;47978;49.118;12.146;2023-08-06T10:07:01;96478.94;;;15.47;97.87
62025;BME280;47978;49.118;12.146;2023-08-06T10:11:02;96479.06;;;15.35;98.45
62025;BME280;47978;49.118;12.146;2023-08-06T10:15:06;96471.88;;;15.34;100.00
62025;BME280;47978;49.118;12.146;2023-08-06T10:19:10;96471.69;;;15.78;99.86
62025;BME280;47978;49.118;12.146;2023-08-06T10:23:12;96466.50;;;16.15;100.00
62025;BME280;47978;49.118;12.146;2023-08-06T10:27:15;96476.88;;;16.99;94.12
62025;BME280;47978;49.118;12.146;2023-08-06T10:31:21;96467.16;;;17.16;93.02
62025;BME280;47978;49.118;12.146;2023-08-06T10:35:44;96477.72;;;16.80;93.11
62025;BME280;47978;49.118;12.146;2023-08-06T10:39:47;96473.97;;;16.30;95.59
62025;BME280;47978;49.118;12.146;2023-08-06T10:43:49;96469.97;;;16.08;95.68
62025;BME280;47978;49.118;12.146;2023-08-06T10:47:52;96469.50;;;15.87;99.09
62025;BME280;47978;49.118;12.146;2023-08-06T10:51:53;96479.25;;;16.16;95.45
62025;BME280;47978;49.118;12.146;2023-08-06T10:55:55;96471.34;;;16.18;95.25
62025;BME280;47978;49.118;12.146;2023-08-06T10:59:57;96476.78;;;16.11;95.23
62025;BME280;47978;49.118;12.146;2023-08-06T11:04:17;96482.06;;;16.16;95.95
62025;BME280;47978;49.118;12.146;2023-08-06T11:08:25;96483.00;;;16.04;97.82
62025;BME280;47978;49.118;12.146;2023-08-06T11:12:26;96475.59;;;15.92;99.10
62025;BME280;47978;49.118;12.146;2023-08-06T11:16:27;96468.09;;;15.96;98.14
62025;BME280;47978;49.118;12.146;2023-08-06T11:20:30;96466.09;;;16.36;96.46
62025;BME280;47978;49.118;12.146;2023-08-06T11:24:32;96458.69;;;16.67;94.79
62025;BME280;47978;49.118;12.146;2023-08-06T11:28:33;96450.66;;;17.07;94.17
62025;BME280;47978;49.118;12.146;2023-08-06T11:32:44;96448.25;;;18.19;89.15
62025;BME280;47978;49.118;12.146;2023-08-06T11:36:47;96446.88;;;18.40;88.44
62025;BME280;47978;49.118;12.146;2023-08-06T11:40:49;96432.25;;;17.56;84.30
62025;BME280;47978;49.118;12.146;2023-08-06T11:44:51;96449.31;;;16.98;89.79
62025;BME280;47978;49.118;12.146;2023-08-06T11:48:52;96447.81;;;16.81;88.17
62025;BME280;47978;49.118;12.146;2023-08-06T11:52:56;96445.22;;;16.92;89.07
62025;BME280;47978;49.118;12.146;2023-08-06T11:56:58;96453.94;;;17.13;90.65
62025;BME280;47978;49.118;12.146;2023-08-06T12:00:59;96441.28;;;17.46;88.13
62025;BME280;47978;49.118;12.146;2023-08-06T12:05:01;96435.16;;;17.67;87.29
62025;BME280;47978;49.118;12.146;2023-08-06T12:09:04;96433.97;;;17.38;87.05
62025;BME280;47978;49.118;12.146;2023-08-06T12:13:06;96433.91;;;17.34;87.39
62025;BME280;47978;49.118;12.146;2023-08-06T12:17:07;96431.41;;;17.56;86.79
62025;BME280;47978;49.118;12.146;2023-08-06T12:21:09;96429.09;;;17.88;85.12
62025;BME280;47978;49.118;12.146;2023-08-06T12:25:12;96427.13;;;18.26;83.63
62025;BME280;47978;49.118;12.146;2023-08-06T12:29:13;96422.28;;;18.60;82.04
62025;BME280;47978;49.118;12.146;2023-08-06T12:33:15;96424.03;;;19.16;79.09
62025;BME280;47978;49.118;12.146;2023-08-06T12:37:16;96416.94;;;19.33;77.21
62025;BME280;47978;49.118;12.146;2023-08-06T12:41:19;96416.41;;;19.17;76.80
62025;BME280;47978;49.118;12.146;2023-08-06T12:45:20;96415.41;;;18.91;76.58
62025;BME280;47978;49.118;12.146;2023-08-06T12:49:22;96417.00;;;18.48;78.47
62025;BME280;47978;49.118;12.146;2023-08-06T12:53:24;96459.91;;;16.89;85.29
62025;BME280;47978;49.118;12.146;2023-08-06T12:57:26;96465.44;;;16.42;93.11
62025;BME280;47978;49.118;12.146;2023-08-06T13:01:47;96477.22;;;16.13;94.06
62025;BME280;47978;49.118;12.146;2023-08-06T13:05:49;96471.34;;;15.99;94.82
62025;BME280;47978;49.118;12.146;2023-08-06T13:09:50;96472.44;;;16.13;96.62
62025;BME280;47978;49.118;12.146;2023-08-06T13:13:53;96473.09;;;16.46;92.62
62025;BME280;47978;49.118;12.146;2023-08-06T13:17:55;96471.94;;;16.50;89.00
62025;BME280;47978;49.118;12.146;2023-08-06T13:22:00;96462.78;;;16.73;92.05
62025;BME280;47978;49.118;12.146;2023-08-06T13:26:02;96467.75;;;16.79;88.44
62025;BME280;47978;49.118;12.146;2023-08-06T13:30:05;96466.72;;;17.14;88.31
62025;BME280;47978;49.118;12.146;2023-08-06T13:34:07;96474.22;;;17.10;88.42
62025;BME280;47978;49.118;12.146;2023-08-06T13:38:08;96469.41;;;17.07;87.08
62025;BME280;47978;49.118;12.146;2023-08-06T13:42:10;96467.22;;;16.74;87.72
62025;BME280;47978;49.118;12.146;2023-08-06T13:46:12;96477.13;;;16.91;89.33
62025;BME280;47978;49.118;12.146;2023-08-06T13:50:14;96481.66;;;16.56;90.11
62025;BME280;47978;49.118;12.146;2023-08-06T13:54:15;96506.34;;;16.15;94.97
62025;BME280;47978;49.118;12.146;2023-08-06T13:58:17;96498.41;;;15.79;96.59
62025;BME280;47978;49.118;12.146;2023-08-06T14:02:19;96497.59;;;15.78;98.63
62025;BME280;47978;49.118;12.146;2023-08-06T14:06:21;96489.25;;;16.17;96.10
62025;BME280;47978;49.118;12.146;2023-08-06T14:10:22;96486.16;;;16.22;97.33
62025;BME280;47978;49.118;12.146;2023-08-06T14:14:24;96488.94;;;16.22;96.52
62025;BME280;47978;49.118;12.146;2023-08-06T14:18:26;96505.69;;;16.22;97.13
62025;BME280;47978;49.118;12.146;2023-08-06T14:22:28;96506.47;;;15.84;95.93
62025;BME280;47978;49.118;12.146;2023-08-06T14:26:29;96514.41;;;15.66;96.76
62025;BME280;47978;49.118;12.146;2023-08-06T14:30:31;96520.13;;;15.89;97.72
62025;BME280;47978;49.118;12.146;2023-08-06T14:34:33;96533.31;;;15.72;97.40
62025;BME280;47978;49.118;12.146;2023-08-06T14:38:35;96533.47;;;15.64;96.08
62025;BME280;47978;49.118;12.146;2023-08-06T14:42:56;96533.69;;;15.71;92.97
62025;BME280;47978;49.118;12.146;2023-08-06T14:46:58;96533.78;;;16.13;92.21
62025;BME280;47978;49.118;12.146;2023-08-06T14:51:01;96547.25;;;16.47;90.08
62025;BME280;47978;49.118;12.146;2023-08-06T14:55:02;96552.53;;;16.32;88.43
62025;BME280;47978;49.118;12.146;2023-08-06T14:59:04;96558.25;;;16.20;87.84
62025;BME280;47978;49.118;12.146;2023-08-06T15:03:05;96565.22;;;16.10;89.04
62025;BME280;47978;49.118;12.146;2023-08-06T15:07:08;96580.50;;;15.49;90.62
62025;BME280;47978;49.118;12.146;2023-08-06T15:11:09;96594.34;;;15.14;93.66
62025;BME280;47978;49.118;12.146;2023-08-06T15:15:11;96584.41;;;14.85;94.45
62025;BME280;47978;49.118;12.146;2023-08-06T15:19:12;96600.94;;;14.78;95.67
62025;BME280;47978;49.118;12.146;2023-08-06T15:23:15;96606.25;;;14.83;97.05
62025;BME280;47978;49.118;12.146;2023-08-06T15:27:16;96606.34;;;14.58;97.00
62025;BME280;47978;49.118;12.146;2023-08-06T15:31:19;96603.31;;;14.64;97.41
62025;BME280;47978;49.118;12.146;2023-08-06T15:35:21;96622.72;;;14.60;96.49
62025;BME280;47978;49.118;12.146;2023-08-06T15:39:23;96627.25;;;14.52;97.16
62025;BME280;47978;49.118;12.146;2023-08-06T15:43:25;96635.91;;;14.51;97.55
62025;BME280;47978;49.118;12.146;2023-08-06T15:47:26;96633.03;;;14.47;96.60
62025;BME280;47978;49.118;12.146;2023-08-06T15:51:28;96645.19;;;14.43;94.74
62025;BME280;47978;49.118;12.146;2023-08-06T15:55:30;96636.75;;;14.39;94.86
62025;BME280;47978;49.118;12.146;2023-08-06T15:59:32;96637.75;;;14.59;93.58
62025;BME280;47978;49.118;12.146;2023-08-06T16:03:33;96644.81;;;14.69;93.75
62025;BME280;47978;49.118;12.146;2023-08-06T16:07:35;96651.44;;;14.64;92.10
62025;BME280;47978;49.118;12.146;2023-08-06T16:11:38;96654.00;;;14.57;91.97
62025;BME280;47978;49.118;12.146;2023-08-06T16:15:39;96654.63;;;14.38;91.72
62025;BME280;47978;49.118;12.146;2023-08-06T16:19:40;96663.91;;;14.30;92.90
62025;BME280;47978;49.118;12.146;2023-08-06T16:23:42;96664.50;;;14.23;92.97
62025;BME280;47978;49.118;12.146;2023-08-06T16:27:45;96670.63;;;14.16;92.30
62025;BME280;47978;49.118;12.146;2023-08-06T16:31:46;96671.34;;;14.13;93.69
62025;BME280;47978;49.118;12.146;2023-08-06T16:35:48;96673.19;;;13.97;94.11
62025;BME280;47978;49.118;12.146;2023-08-06T16:39:49;96683.19;;;13.98;95.09
62025;BME280;47978;49.118;12.146;2023-08-06T16:43:52;96682.00;;;13.99;94.33
62025;BME280;47978;49.118;12.146;2023-08-06T16:47:53;96684.78;;;13.87;95.10
62025;BME280;47978;49.118;12.146;2023-08-06T16:51:54;96680.16;;;13.91;93.94
62025;BME280;47978;49.118;12.146;2023-08-06T16:55:56;96680.41;;;13.98;93.97
62025;BME280;47978;49.118;12.146;2023-08-06T16:59:59;96682.81;;;14.00;94.82
62025;BME280;47978;49.118;12.146;2023-08-06T17:04:00;96687.09;;;13.97;93.22
62025;BME280;47978;49.118;12.146;2023-08-06T17:08:02;96690.13;;;14.04;92.34
62025;BME280;47978;49.118;12.146;2023-08-06T17:12:04;96701.22;;;14.16;92.17
62025;BME280;47978;49.118;12.146;2023-08-06T17:16:07;96693.94;;;14.12;91.72
62025;BME280;47978;49.118;12.146;2023-08-06T17:20:08;96693.09;;;14.11;91.32
62025;BME280;47978;49.118;12.146;2023-08-06T17:24:10;96706.09;;;14.07;91.92
62025;BME280;47978;49.118;12.146;2023-08-06T17:28:13;96703.78;;;13.97;92.05
62025;BME280;47978;49.118;12.146;2023-08-06T17:32:16;96717.09;;;13.91;94.13
62025;BME280;47978;49.118;12.146;2023-08-06T17:36:17;96706.31;;;13.65;96.82
62025;BME280;47978;49.118;12.146;2023-08-06T17:40:18;96713.13;;;13.56;96.34
62025;BME280;47978;49.118;12.146;2023-08-06T17:44:20;96710.00;;;13.57;96.39
62025;BME280;47978;49.118;12.146;2023-08-06T17:48:23;96711.75;;;13.62;95.24
62025;BME280;47978;49.118;12.146;2023-08-06T17:52:24;96714.19;;;13.63;95.12
62025;BME280;47978;49.118;12.146;2023-08-06T17:56:26;96722.66;;;13.67;95.68
62025;BME280;47978;49.118;12.146;2023-08-06T18:00:27;96720.09;;;13.74;93.15
62025;BME280;47978;49.118;12.146;2023-08-06T18:04:30;96723.13;;;13.81;92.42
62025;BME280;47978;49.118;12.146;2023-08-06T18:08:31;96724.25;;;13.80;91.26
62025;BME280;47978;49.118;12.146;2023-08-06T18:12:33;96733.75;;;13.79;90.55
62025;BME280;47978;49.118;12.146;2023-08-06T18:16:34;96735.75;;;13.79;90.62
62025;BME280;47978;49.118;12.146;2023-08-06T18:20:37;96739.91;;;13.72;89.78
62025;BME280;47978;49.118;12.146;2023-08-06T18:24:40;96737.94;;;13.73;88.57
62025;BME280;47978;49.118;12.146;2023-08-06T18:28:41;96742.78;;;13.76;89.69
62025;BME280;47978;49.118;12.146;2023-08-06T18:32:42;96740.72;;;13.73;89.19
62025;BME280;47978;49.118;12.146;2023-08-06T18:36:47;96736.88;;;13.65;89.28
62025;BME280;47978;49.118;12.146;2023-08-06T18:40:48;96750.06;;;13.68;89.15
62025;BME280;47978;49.118;12.146;2023-08-06T18:44:49;96749.25;;;13.68;89.81
62025;BME280;47978;49.118;12.146;2023-08-06T18:48:51;96750.97;;;13.60;90.65
62025;BME280;47978;49.118;12.146;2023-08-06T18:52:54;96758.38;;;13.56;90.41
62025;BME280;47978;49.118;12.146;2023-08-06T18:56:55;96783.34;;;13.44;92.90
62025;BME280;47978;49.118;12.146;2023-08-06T19:00:57;96787.97;;;13.19;94.98
62025;BME280;47978;49.118;12.146;2023-08-06T19:04:58;96789.13;;;13.18;95.81
62025;BME280;47978;49.118;12.146;2023-08-06T19:09:01;96794.31;;;13.19;94.93
62025;BME280;47978;49.118;12.146;2023-08-06T19:13:06;96794.31;;;13.19;94.41
62025;BME280;47978;49.118;12.146;2023-08-06T19:17:08;96802.34;;;13.21;94.18
62025;BME280;47978;49.118;12.146;2023-08-06T19:21:09;96789.75;;;13.23;93.31
62025;BME280;47978;49.118;12.146;2023-08-06T19:25:12;96792.16;;;13.25;92.86
62025;BME280;47978;49.118;12.146;2023-08-06T19:29:13;96797.41;;;13.26;92.83
62025;BME280;47978;49.118;12.146;2023-08-06T19:33:15;96802.47;;;13.24;93.27
62025;BME280;47978;49.118;12.146;2023-08-06T19:37:17;96806.88;;;13.25;92.51
62025;BME280;47978;49.118;12.146;2023-08-06T19:41:19;96809.38;;;13.18;93.11
62025;BME280;47978;49.118;12.146;2023-08-06T19:45:24;96799.06;;;13.19;92.65
62025;BME280;47978;49.118;12.146;2023-08-06T19:49:26;96801.50;;;13.20;92.69
62025;BME280;47978;49.118;12.146;2023-08-06T19:53:27;96808.09;;;13.16;92.80
62025;BME280;47978;49.118;12.146;2023-08-06T19:57:30;96807.03;;;13.20;92.74
62025;BME280;47978;49.118;12.146;2023-08-06T20:01:31;96809.44;;;13.10;92.78
62025;BME280;47978;49.118;12.146;2023-08-06T20:05:33;96806.13;;;13.16;92.79
62025;BME280;47978;49.118;12.146;2023-08-06T20:09:34;96809.22;;;13.15;93.36
62025;BME280;47978;49.118;12.146;2023-08-06T20:13:37;96804.81;;;13.14;92.96
62025;BME280;47978;49.118;12.146;2023-08-06T20:17:38;96816.28;;;13.12;93.02
62025;BME280;47978;49.118;12.146;2023-08-06T20:21:40;96818.59;;;13.10;93.24
62025;BME280;47978;49.118;12.146;2023-08-06T20:25:41;96817.41;;;13.11;93.64
62025;BME280;47978;49.118;12.146;2023-08-06T20:29:44;96813.72;;;13.07;93.20
62025;BME280;47978;49.118;12.146;2023-08-06T20:33:45;96830.38;;;13.07;93.17
62025;BME280;47978;49.118;12.146;2023-08-06T20:37:46;96821.56;;;13.05;93.03
62025;BME280;47978;49.118;12.146;2023-08-06T20:41:48;96821.44;;;13.01;93.04
62025;BME280;47978;49.118;12.146;2023-08-06T20:45:54;96816.56;;;12.98;93.38
62025;BME280;47978;49.118;12.146;2023-08-06T20:49:55;96816.38;;;13.03;93.19
62025;BME280;47978;49.118;12.146;2023-08-06T20:53:57;96820.63;;;13.01;92.97
62025;BME280;47978;49.118;12.146;2023-08-06T20:57:58;96819.78;;;13.00;93.12
62025;BME280;47978;49.118;12.146;2023-08-06T21:02:01;96827.66;;;12.98;93.31